Inwood, Indiana
Current Conditions -  °F | °C
As of 3:15 AM on Tuesday 21 Oct 2014 (Local Time) from KOXI Reporting Station
Overcast Overcast  
Wind Chill: 47°   Ceiling: 5000
Heat Index: 49°   Visibility: 10mi
Dew Point: 44°   Wind: 6mph
Humidity: 81%   Direction: 330°NNW
Pressure: 29.98"   Gusts: NA
Location:  41.3572°N, 86.3281°W
Report Text: KOXI 210715Z AUTO 33005KT 10SM SCT028 OVC050 10/07 A2998 RMK AO1 T00970066
Loading
Personal Weather Stations






























Interactive Weather Map
Tropical Storm Tracking
New forecast layout! Learn more

10-Day Weather Forecast

Advertisements
Track Severe Weather on mobile